Latest Weather Observations for Jimna

IDQ60901

Issued at 1:11 am EST Wednesday 4 March 2015 (issued every 10 minutes, with the page automatically refreshed every 10 minutes)

About weather observations | Map of Brisbane area stations | Latest observations for Brisbane area | Other Formats
Station Details ID: 040651 Name: JIMNA FORESTRY Lat: -26.66 Lon: 152.46 Height: 523.0 m
Data from the previous 72 hours. | See also: Recent months at Jimna
Date/Time
EST
Tmp

°C
App
Tmp
°C
Dew
Point
°C
Rel
Hum
%
Delta-T

°C
Wind Press
QNH
hPa
Press
MSL
hPa
Rain
since
9 am
mm
Dir
 
Spd
km/h
Gust
km/h
Spd
kts
Gust
kts
04/01:00am 18.2 - 15.8 86 1.5 - - - - - - - 0.0
04/12:30am 18.6 - 16.2 86 1.5 - - - - - - - 0.0
04/12:00am 18.7 - 16.3 86 1.5 - - - - - - - 0.0
 
Date/Time
EST
Tmp

°C
App
Tmp
°C
Dew
Point
°C
Rel
Hum
%
Delta-T

°C
Wind Press
QNH
hPa
Press
MSL
hPa
Rain
since
9 am
mm
Dir
 
Spd
km/h
Gust
km/h
Spd
kts
Gust
kts
03/11:30pm 18.8 - 16.4 86 1.5 - - - - - - - 0.0
03/11:00pm 18.7 - 16.3 86 1.5 - - - - - - - 0.0
03/10:30pm 18.7 - 16.5 87 1.3 - - - - - - - 0.0
03/10:00pm 18.6 - 16.0 85 1.6 - - - - - - - 0.0
03/09:30pm 19.3 - 16.3 83 1.8 - - - - - - - 0.0
03/09:00pm 19.4 - 16.4 83 1.8 - - - - - - - 0.0
03/08:30pm 19.7 - 16.7 83 1.9 - - - - - - - 0.0
03/08:00pm 19.8 - 16.8 83 1.9 - - - - - - - 0.0
03/07:30pm 20.5 - 17.1 81 2.1 - - - - - - - 0.0
03/07:00pm 21.0 - 16.8 77 2.6 - - - - - - - 0.0
03/06:30pm 21.9 - 16.2 70 3.5 - - - - - - - 0.0
03/06:00pm 23.1 - 14.9 60 5.0 - - - - - - - 0.0
03/05:30pm 23.9 - 14.6 56 5.6 - - - - - - - 0.0
03/05:00pm 24.8 - 14.3 52 6.4 - - - - - - - 0.0
03/04:30pm 25.9 - 14.7 50 6.9 - - - - - - - 0.0
03/04:00pm 26.4 - 12.8 43 8.1 - - - - - - - 0.0
03/03:30pm 27.1 - 16.1 51 6.9 - - - - - - - 0.0
03/03:00pm 27.0 - 16.3 52 6.7 - - - - - - - 0.0
03/02:30pm 26.9 - 16.2 52 6.7 - - - - - - - 0.0
03/02:00pm 26.6 - 13.3 43 8.0 - - - - - - - 0.0
03/01:30pm 26.5 - 14.6 48 7.3 - - - - - - - 0.0
03/01:00pm 26.5 - 15.5 50 6.8 - - - - - - - 0.0
03/12:30pm 26.1 - 16.4 55 6.1 - - - - - - - 0.0
03/12:00pm 26.0 - 17.6 60 5.4 - - - - - - - 0.0
03/11:30am 25.1 - 15.1 53 6.1 - - - - - - - 0.0
03/11:00am 24.5 - 16.0 59 5.3 - - - - - - - 0.0
03/10:30am 24.2 - 15.7 59 5.3 - - - - - - - 0.0
03/10:00am 24.3 - 15.8 59 5.3 - - - - - - - 0.0
03/09:30am 24.0 - 16.3 62 4.8 - - - - - - - 0.0
03/09:00am 23.3 - 15.9 63 4.6 - - - - - - - 0.0
03/08:30am 22.9 - 16.4 67 4.0 - - - - - - - 0.0
03/08:00am 22.1 - 16.1 69 3.7 - - - - - - - 0.0
03/07:30am 21.7 - 16.4 72 3.3 - - - - - - - 0.0
03/07:00am 20.2 - 17.2 83 1.9 - - - - - - - 0.0
03/06:30am 18.5 - 16.7 89 1.1 - - - - - - - 0.0
03/06:00am 17.6 - 15.8 89 1.1 - - - - - - - 0.0
03/05:30am 18.0 - 16.0 88 1.2 - - - - - - - 0.0
03/05:00am 18.5 - 16.3 87 1.3 - - - - - - - 0.0
03/04:30am 18.3 - 16.3 88 1.2 - - - - - - - 0.0
03/04:00am 18.4 - 16.4 88 1.2 - - - - - - - 0.0
03/03:30am 18.9 - 16.7 87 1.4 - - - - - - - 0.0
03/03:00am 19.2 - 16.8 86 1.5 - - - - - - - 0.0
03/02:30am 19.1 - 16.9 87 1.4 - - - - - - - 0.0
03/02:00am 19.4 - 16.8 85 1.6 - - - - - - - 0.0
03/01:30am 19.1 - 16.9 87 1.4 - - - - - - - 0.0
03/01:00am 19.2 - 16.8 86 1.5 - - - - - - - 0.0
03/12:30am 19.3 - 16.7 85 1.6 - - - - - - - 0.0
03/12:00am 19.6 - 16.8 84 1.7 - - - - - - - 0.0
 
Date/Time
EST
Tmp

°C
App
Tmp
°C
Dew
Point
°C
Rel
Hum
%
Delta-T

°C
Wind Press
QNH
hPa
Press
MSL
hPa
Rain
since
9 am
mm
Dir
 
Spd
km/h
Gust
km/h
Spd
kts
Gust
kts
02/11:30pm 20.1 - 16.7 81 2.1 - - - - - - - 0.0
02/11:00pm 20.2 - 17.4 84 1.8 - - - - - - - 0.0
02/10:30pm 20.4 - 17.4 83 1.9 - - - - - - - 0.0
02/10:00pm 20.6 - 17.2 81 2.1 - - - - - - - 0.0
02/09:30pm 20.8 - 17.0 79 2.4 - - - - - - - 0.0
02/09:00pm 20.7 - 16.7 78 2.5 - - - - - - - 0.0
02/08:30pm 21.0 - 16.8 77 2.6 - - - - - - - 0.0
02/08:00pm 21.1 - 16.7 76 2.7 - - - - - - - 0.0
02/07:30pm 21.3 - 16.5 74 3.0 - - - - - - - 0.0
02/07:00pm 21.8 - 17.0 74 3.0 - - - - - - - 0.0
02/06:30pm 22.0 - 17.4 75 2.9 - - - - - - - 0.0
02/06:00pm 22.6 - 17.5 73 3.2 - - - - - - - 0.0
02/05:30pm 22.8 - 17.5 72 3.4 - - - - - - - 0.0
02/05:00pm 24.3 - 17.5 66 4.3 - - - - - - - 0.0
02/04:30pm 25.2 - 18.2 65 4.5 - - - - - - - 0.0
02/04:00pm 25.6 - 19.0 67 4.3 - - - - - - - 0.0
02/03:30pm 24.8 - 18.7 69 4.0 - - - - - - - 0.0
02/03:00pm 26.2 - 19.3 65 4.5 - - - - - - - 0.0
02/02:30pm 25.5 - 18.4 65 4.6 - - - - - - - 0.0
02/02:00pm 26.7 - 19.6 65 4.7 - - - - - - - 0.0
02/01:30pm 26.0 - 19.4 67 4.3 - - - - - - - 0.0
02/01:00pm 27.4 - 17.8 55 6.2 - - - - - - - 0.0
02/12:30pm 27.5 - 19.3 61 5.4 - - - - - - - 0.0
02/12:00pm 26.3 - 18.2 61 5.2 - - - - - - - 0.0
02/11:30am 27.2 - 18.2 58 5.8 - - - - - - - 0.0
02/11:00am 26.0 - 18.9 65 4.6 - - - - - - - 0.0
02/10:30am 25.5 - 20.3 73 3.5 - - - - - - - 0.0
02/10:00am 23.7 - 19.8 79 2.6 - - - - - - - 0.0
02/09:30am 23.2 - 20.7 86 1.7 - - - - - - - 0.0
02/09:00am 22.1 - 20.4 90 1.1 - - - - - - - 0.0
02/08:30am 20.7 - 19.2 91 1.0 - - - - - - - 0.0
02/08:00am 20.7 - 19.0 90 1.1 - - - - - - - 0.0
02/07:30am 20.7 - 19.9 95 0.5 - - - - - - - 0.0
02/07:00am 20.1 - 19.3 95 0.5 - - - - - - - 0.0
02/06:30am 19.8 - 19.1 96 0.4 - - - - - - - 0.0
02/06:00am 19.0 - 18.0 94 0.6 - - - - - - - 0.0
02/05:30am 18.9 - 17.6 92 0.8 - - - - - - - 0.0
02/05:00am 19.2 - 17.7 91 0.9 - - - - - - - 0.0
02/04:30am 19.4 - 17.7 90 1.1 - - - - - - - 0.0
02/04:00am 19.8 - 17.9 89 1.2 - - - - - - - 0.0
02/03:30am 20.2 - 18.3 89 1.2 - - - - - - - 0.0
02/03:00am 20.2 - 18.5 90 1.1 - - - - - - - 0.0
02/02:30am 20.3 - 18.4 89 1.2 - - - - - - - 0.0
02/02:00am 20.4 - 18.3 88 1.3 - - - - - - - 0.0
02/01:30am 20.6 - 18.7 89 1.2 - - - - - - - 0.0
02/01:00am 20.5 - 18.6 89 1.2 - - - - - - - 0.0
02/12:30am 20.6 - 18.7 89 1.2 - - - - - - - 0.0
02/12:00am 20.5 - 18.8 90 1.1 - - - - - - - 0.0
 
Date/Time
EST
Tmp

°C
App
Tmp
°C
Dew
Point
°C
Rel
Hum
%
Delta-T

°C
Wind Press
QNH
hPa
Press
MSL
hPa
Rain
since
9 am
mm
Dir
 
Spd
km/h
Gust
km/h
Spd
kts
Gust
kts
01/11:30pm 20.1 - 18.4 90 1.1 - - - - - - - 0.0
01/11:00pm 20.0 - 18.3 90 1.1 - - - - - - - 0.0
01/10:30pm 20.1 - 18.0 88 1.3 - - - - - - - 0.0
01/10:00pm 20.3 - 18.1 87 1.4 - - - - - - - 0.0
01/09:30pm 20.7 - 18.5 87 1.4 - - - - - - - 0.0
01/09:00pm 21.1 - 18.9 87 1.4 - - - - - - - 0.0
01/08:30pm 21.4 - 19.0 86 1.5 - - - - - - - 0.0
01/08:00pm 21.7 - 18.9 84 1.8 - - - - - - - 0.0
01/07:30pm 22.1 - 18.9 82 2.1 - - - - - - - 0.0
01/07:00pm 22.7 - 19.3 81 2.2 - - - - - - - 0.0
01/06:30pm 23.4 - 19.5 79 2.5 - - - - - - - 0.0
01/06:00pm 24.2 - 19.7 76 3.0 - - - - - - - 0.0
01/05:30pm 25.0 - 19.8 73 3.4 - - - - - - - 0.0
01/05:00pm 26.5 - 18.1 60 5.4 - - - - - - - 0.0
01/04:30pm 28.7 - 18.2 53 6.8 - - - - - - - 0.0
01/04:00pm 28.6 - 18.7 55 6.5 - - - - - - - 0.0
01/03:30pm 28.9 - 16.8 48 7.7 - - - - - - - 0.0
01/03:00pm 29.7 - 16.8 45 8.3 - - - - - - - 0.0
01/02:30pm 29.1 - 16.6 46 8.0 - - - - - - - 0.0
01/02:00pm 28.2 - 16.1 47 7.6 - - - - - - - 0.0
01/01:30pm 27.7 - 15.7 48 7.5 - - - - - - - 0.0
01/01:00pm 27.3 - 16.0 50 7.1 - - - - - - - 0.0
01/12:30pm 27.4 - 17.8 55 6.2 - - - - - - - 0.0
01/12:00pm 27.1 - 20.4 66 4.5 - - - - - - - 0.0
01/11:30am 25.3 - 17.5 62 5.0 - - - - - - - 0.0
01/11:00am 26.3 - 18.4 61 5.1 - - - - - - - 0.0
01/10:30am 25.6 - 17.8 62 5.0 - - - - - - - 0.0
01/10:00am 25.4 - 18.8 67 4.3 - - - - - - - 0.0
01/09:30am 23.2 - 17.4 70 3.7 - - - - - - - 0.0
01/09:00am 24.1 - 17.8 68 4.0 - - - - - - - 0.0
01/08:30am 23.3 - 18.2 73 3.3 - - - - - - - 0.0
01/08:00am 22.0 - 19.5 86 1.6 - - - - - - - 0.0
01/07:30am 20.0 - 19.5 97 0.3 - - - - - - - 0.0
01/07:00am 19.4 - 19.2 99 0.1 - - - - - - - 0.0
01/06:30am 18.4 - 18.1 98 0.2 - - - - - - - 0.0
01/06:00am 18.2 - 17.7 97 0.3 - - - - - - - 0.0
01/05:30am 18.3 - 18.0 98 0.2 - - - - - - - 0.0
01/05:00am 18.4 - 17.9 97 0.3 - - - - - - - 0.0
01/04:30am 18.4 - 17.8 96 0.4 - - - - - - - 0.0
01/04:00am 18.7 - 17.2 91 0.9 - - - - - - - 0.0
01/03:30am 18.8 - 17.3 91 0.9 - - - - - - - 0.0
01/03:00am 19.2 - 17.9 92 0.8 - - - - - - - 0.0
01/02:30am 19.1 - 17.8 92 0.8 - - - - - - - 0.0
01/02:00am 19.3 - 18.6 96 0.4 - - - - - - - 0.0
01/01:30am 19.3 - 17.8 91 0.9 - - - - - - - 0.0

Latest Capital City Observations: Canberra | Sydney | Melbourne | Brisbane | Adelaide | Perth | Hobart | Darwin

Other Formats:

Comma delimited format used in spreadsheet applications
http://www.bom.gov.au/fwo/IDQ60901/IDQ60901.94557.axf

JavaScript Object Notation format (JSON) in row-major order
http://www.bom.gov.au/fwo/IDQ60901/IDQ60901.94557.json